Terminal Aerodrome Forecast
Issued by NWS Grand Rapids, MI

Home | Current Version | Previous Version | Text Only | Print | Product List | Glossary On
Versions: 1 2 3 4 5 6 7 8 9 10 11 12 13 14
317
FTUS43 KGRR 131139
TAFGRR
TAF
KGRR 131139Z 1312/1412 31011KT P6SM -SN BKN040
     FM131500 32013G20KT 5SM -SN BKN025
     FM132100 31008KT P6SM BKN050
     FM140600 15003KT P6SM SKC=

USA.gov is the U.S. government's official web portal to all federal, state and local government web resources and services.